Time;durP1;ratioP1;P1;durP2;ratioP2;P2;SDS_P1;SDS_P2;PMS_P1;PMS_P2;Temp;Humidity;BMP_temperature;BMP_pressure;BME280_temperature;BME280_humidity;BME280_pressure;Samples;Min_cycle;Max_cycle;Signal;HPM_P1;HPM_P2
2023/01/28 00:01:48;;;;;;;10.40;6.75;;;2.40;1.00;;;;;;5139274;27;20046;-84
2023/01/28 00:04:14;;;;;;;10.38;6.68;;;2.50;1.00;;;;;;5122201;27;20042;-83
2023/01/28 00:06:40;;;;;;;10.80;6.97;;;3.30;1.00;;;;;;5104982;27;20111;-83
2023/01/28 00:09:06;;;;;;;12.18;7.15;;;3.30;1.00;;;;;;5122099;27;20051;-83
2023/01/28 00:11:32;;;;;;;10.10;6.80;;;2.50;1.00;;;;;;5105203;27;20096;-83
2023/01/28 00:13:58;;;;;;;9.73;6.65;;;2.40;1.00;;;;;;5139063;27;20046;-83
2023/01/28 00:16:26;;;;;;;10.00;6.65;;;2.50;1.00;;;;;;5105008;27;20049;-82
2023/01/28 00:18:52;;;;;;;9.57;6.13;;;2.40;1.00;;;;;;5121183;27;20042;-83
2023/01/28 00:21:18;;;;;;;9.48;6.32;;;3.00;1.00;;;;;;5087972;27;20043;-83
2023/01/28 00:23:50;;;;;;;9.25;6.03;;;2.40;1.00;;;;;;5138692;27;20459;-83
2023/01/28 00:26:16;;;;;;;8.27;6.22;;;3.10;1.00;;;;;;5138810;27;20089;-84
2023/01/28 00:28:42;;;;;;;11.57;6.28;;;3.10;1.00;;;;;;5100692;27;20095;-83
2023/01/28 00:31:15;;;;;;;9.32;6.18;;;3.00;1.00;;;;;;5118078;27;20087;-83
2023/01/28 00:33:42;;;;;;;10.40;6.40;;;3.20;1.00;;;;;;5117891;27;20046;-83
2023/01/28 00:36:08;;;;;;;10.38;6.32;;;2.60;1.00;;;;;;5117951;27;20051;-83
2023/01/28 00:38:34;;;;;;;11.73;7.00;;;2.40;1.00;;;;;;5134267;27;20074;-83
2023/01/28 00:41:11;;;;;;;9.65;6.35;;;3.10;1.00;;;;;;5117893;27;20043;-83
2023/01/28 00:43:37;;;;;;;8.95;6.28;;;2.30;1.00;;;;;;5117439;27;20468;-83
2023/01/28 00:46:06;;;;;;;10.57;6.25;;;3.10;7.20;;;;;;5117710;27;20057;-81
2023/01/28 00:48:32;;;;;;;10.77;6.10;;;2.30;1.00;;;;;;5117810;27;20344;-83
2023/01/28 00:50:58;;;;;;;9.18;6.18;;;2.30;22.20;;;;;;5117477;27;20123;-83
2023/01/28 00:53:23;;;;;;;9.90;6.60;;;2.60;24.30;;;;;;5117537;27;20137;-84
2023/01/28 00:55:49;;;;;;;10.65;6.22;;;2.40;25.00;;;;;;5100452;27;20039;-84
2023/01/28 00:58:15;;;;;;;7.68;5.70;;;2.90;1.00;;;;;;5117171;27;20418;-83
2023/01/28 01:00:41;;;;;;;8.07;5.63;;;2.30;5.70;;;;;;5117216;27;20051;-83
2023/01/28 01:03:06;;;;;;;8.63;5.93;;;2.30;1.00;;;;;;5134481;27;20131;-83
2023/01/28 01:05:32;;;;;;;9.13;6.28;;;2.30;1.00;;;;;;5100306;27;20039;-83
2023/01/28 01:07:59;;;;;;;9.75;5.53;;;3.20;1.00;;;;;;5117029;27;20115;-84
2023/01/28 01:10:24;;;;;;;8.25;5.13;;;2.80;22.10;;;;;;5100298;27;20475;-82
2023/01/28 01:12:51;;;;;;;7.65;5.03;;;3.20;10.90;;;;;;5134275;27;20051;-84
2023/01/28 01:15:18;;;;;;;8.02;4.72;;;2.90;1.00;;;;;;5134433;27;20545;-83
2023/01/28 01:17:46;;;;;;;6.50;4.82;;;2.30;1.00;;;;;;5116721;27;20043;-84
2023/01/28 01:20:16;;;;;;;6.38;4.22;;;3.10;1.00;;;;;;5134178;27;20051;-84
2023/01/28 01:22:42;;;;;;;6.25;4.05;;;3.00;1.00;;;;;;5133920;27;20076;-84
2023/01/28 01:25:08;;;;;;;5.65;3.97;;;3.00;99.90;;;;;;5134171;27;20039;-84
2023/01/28 01:27:34;;;;;;;5.78;3.92;;;2.30;99.90;;;;;;5117856;27;20043;-85
2023/01/28 01:29:59;;;;;;;5.47;3.60;;;2.70;99.90;;;;;;5086413;27;20122;-84
2023/01/28 01:32:29;;;;;;;6.38;4.35;;;2.30;99.90;;;;;;5103414;27;20428;-84
2023/01/28 01:34:55;;;;;;;4.53;3.33;;;2.90;99.90;;;;;;5119987;27;20090;-82
2023/01/28 01:37:21;;;;;;;6.97;3.40;;;2.20;99.90;;;;;;5137140;27;20082;-83
2023/01/28 01:39:46;;;;;;;5.15;3.83;;;2.90;99.90;;;;;;5086157;27;20091;-83
2023/01/28 01:42:13;;;;;;;5.95;3.20;;;2.40;99.90;;;;;;5120126;27;20462;-84
2023/01/28 01:45:01;;;;;;;4.68;3.20;;;3.00;99.90;;;;;;5136907;27;20414;-84
2023/01/28 01:47:45;;;;;;;5.72;3.70;;;2.20;99.90;;;;;;5120011;27;20049;-83
2023/01/28 01:50:15;;;;;;;4.95;3.53;;;2.20;99.90;;;;;;5137108;27;20517;-82
2023/01/28 01:52:42;;;;;;;5.13;3.50;;;2.20;99.90;;;;;;5119871;27;20549;-83
2023/01/28 01:55:13;;;;;;;4.20;3.25;;;2.30;99.90;;;;;;5102593;27;20043;-83
2023/01/28 01:57:40;;;;;;;6.70;3.80;;;3.20;99.90;;;;;;5119525;27;20061;-82
2023/01/28 02:00:07;;;;;;;5.32;3.70;;;2.20;99.90;;;;;;5119699;27;20050;-85
2023/01/28 02:02:53;;;;;;;6.03;3.40;;;2.20;99.90;;;;;;5137070;27;20092;-82
2023/01/28 02:05:21;;;;;;;5.03;3.50;;;2.70;99.90;;;;;;5136186;27;20171;-83
2023/01/28 02:07:53;;;;;;;8.75;3.92;;;2.50;99.90;;;;;;5119541;27;20034;-83
2023/01/28 02:10:20;;;;;;;5.40;3.50;;;2.20;1.00;;;;;;5136827;27;20505;-83
2023/01/28 02:12:55;;;;;;;6.40;3.90;;;2.20;1.00;;;;;;5119497;27;20058;-84
2023/01/28 02:15:24;;;;;;;6.32;4.03;;;2.20;1.00;;;;;;5119654;27;20039;-84
2023/01/28 02:17:50;;;;;;;5.00;3.70;;;2.60;1.00;;;;;;5136287;27;20043;-83
2023/01/28 02:20:24;;;;;;;8.00;4.40;;;2.80;1.00;;;;;;5119619;27;20130;-83
2023/01/28 02:23:08;;;;;;;6.25;3.60;;;2.20;1.00;;;;;;5136473;27;20043;-83
2023/01/28 02:26:11;;;;;;;5.65;3.78;;;2.10;1.00;;;;;;5136597;27;20039;-83
2023/01/28 02:28:45;;;;;;;6.18;4.00;;;2.20;1.00;;;;;;5118958;27;20050;-83
2023/01/28 02:31:57;;;;;;;4.97;3.47;;;2.10;1.00;;;;;;5136421;27;20057;-84
2023/01/28 02:34:41;;;;;;;5.63;3.60;;;2.20;1.00;;;;;;5117017;27;20049;-83
2023/01/28 02:37:26;;;;;;;6.05;3.30;;;2.40;1.00;;;;;;5136319;27;20100;-83
2023/01/28 02:39:55;;;;;;;5.03;3.30;;;2.20;1.00;;;;;;5136391;27;20184;-84
2023/01/28 02:42:29;;;;;;;5.25;3.88;;;2.80;1.00;;;;;;5119761;27;20125;-84
2023/01/28 02:44:55;;;;;;;6.38;3.63;;;2.10;99.90;;;;;;5136332;27;20416;-84
2023/01/28 02:50:10;;;;;;;5.30;3.65;;;3.10;99.90;;;;;;5107344;27;20047;-85
2023/01/28 02:55:42;;;;;;;5.57;3.42;;;2.40;99.90;;;;;;5136231;27;20051;-85
2023/01/28 02:58:27;;;;;;;4.90;3.05;;;2.00;99.90;;;;;;5118854;27;20039;-85
2023/01/28 03:00:55;;;;;;;6.95;3.83;;;2.00;99.90;;;;;;5118992;27;20401;-86
2023/01/28 03:03:39;;;;;;;5.25;3.33;;;2.00;99.90;;;;;;5136228;27;20085;-84
2023/01/28 03:06:10;;;;;;;6.28;3.35;;;2.50;99.90;;;;;;5118824;27;20547;-84
2023/01/28 03:09:21;;;;;;;5.65;3.20;;;2.40;99.90;;;;;;5119091;27;20129;-84
2023/01/28 03:37:17;;;;;;;6.20;3.53;;;2.50;47.20;;;;;;5135906;27;20051;-84
2023/01/28 03:39:43;;;;;;;5.95;3.67;;;2.20;18.40;;;;;;5119098;27;20035;-83
2023/01/28 03:42:12;;;;;;;7.15;3.80;;;2.70;1.00;;;;;;5135704;27;20465;-83
2023/01/28 03:44:51;;;;;;;6.22;3.97;;;1.90;1.00;;;;;;5118971;27;20130;-84
2023/01/28 03:47:17;;;;;;;7.25;3.85;;;2.00;1.00;;;;;;5135942;27;20065;-83
2023/01/28 03:49:47;;;;;;;5.95;3.67;;;2.80;1.00;;;;;;5102044;27;20046;-83
2023/01/28 03:52:15;;;;;;;7.07;4.65;;;1.90;1.00;;;;;;5118675;27;20051;-84
2023/01/28 03:54:41;;;;;;;8.15;4.60;;;3.00;1.00;;;;;;5118749;27;20094;-84
2023/01/28 03:57:07;;;;;;;6.40;4.50;;;1.90;1.00;;;;;;5118475;27;20076;-83
2023/01/28 03:59:33;;;;;;;7.45;4.75;;;3.00;23.20;;;;;;5118764;27;20126;-84
2023/01/28 04:01:59;;;;;;;8.85;4.75;;;2.90;76.60;;;;;;5135853;27;20046;-84
2023/01/28 04:04:25;;;;;;;8.10;5.05;;;3.00;96.20;;;;;;5101350;27;20046;-84
2023/01/28 04:06:52;;;;;;;7.53;4.57;;;2.00;99.90;;;;;;5118616;27;20491;-83
2023/01/28 04:09:18;;;;;;;8.55;4.43;;;1.90;99.90;;;;;;5118443;27;20061;-83
2023/01/28 04:11:43;;;;;;;9.75;5.18;;;1.90;99.90;;;;;;5101391;27;20043;-83
2023/01/28 04:14:09;;;;;;;8.25;5.47;;;2.80;99.90;;;;;;5135426;27;20428;-83
2023/01/28 04:16:35;;;;;;;9.82;5.32;;;1.90;99.90;;;;;;5118679;27;20134;-83
2023/01/28 04:19:01;;;;;;;7.88;5.18;;;1.90;19.40;;;;;;5135317;27;20093;-82
2023/01/28 04:21:26;;;;;;;9.68;5.63;;;2.00;1.00;;;;;;5100957;27;20600;-83
2023/01/28 04:23:52;;;;;;;10.15;5.70;;;2.70;1.00;;;;;;5118349;27;20057;-83
2023/01/28 04:26:18;;;;;;;8.35;5.40;;;1.90;1.00;;;;;;5118040;27;20116;-82
2023/01/28 04:28:43;;;;;;;9.40;5.53;;;2.40;1.00;;;;;;5117827;27;20552;-84
2023/01/28 04:31:09;;;;;;;9.90;5.75;;;2.00;1.00;;;;;;5084611;27;20047;-83
2023/01/28 04:33:35;;;;;;;9.65;5.35;;;1.90;1.00;;;;;;5101001;27;20046;-84
2023/01/28 04:36:01;;;;;;;8.55;5.18;;;2.50;1.00;;;;;;5101088;27;20459;-83
2023/01/28 04:38:26;;;;;;;10.30;5.47;;;2.80;1.00;;;;;;5117628;27;20307;-84
2023/01/28 04:40:53;;;;;;;10.98;5.90;;;2.70;1.00;;;;;;5117879;27;20054;-84
2023/01/28 04:43:19;;;;;;;9.13;5.63;;;1.90;37.70;;;;;;5134753;27;20608;-83
2023/01/28 04:45:46;;;;;;;10.60;5.43;;;1.90;75.80;;;;;;5117819;27;20043;-83
2023/01/28 04:48:13;;;;;;;9.45;5.30;;;2.00;93.10;;;;;;5117538;27;20414;-83
2023/01/28 04:50:39;;;;;;;9.35;5.40;;;2.50;99.30;;;;;;5134881;27;20076;-82
2023/01/28 04:53:05;;;;;;;8.23;5.05;;;1.80;85.00;;;;;;5134660;27;20043;-83
2023/01/28 04:55:31;;;;;;;9.85;5.60;;;1.80;1.00;;;;;;5117323;27;20111;-82
2023/01/28 04:57:56;;;;;;;9.23;5.70;;;1.80;1.00;;;;;;5117403;27;20047;-83
2023/01/28 05:00:22;;;;;;;10.13;5.47;;;1.80;1.00;;;;;;5134399;27;20142;-83
2023/01/28 05:02:48;;;;;;;9.57;5.65;;;1.80;1.00;;;;;;5117642;27;20039;-83
2023/01/28 05:05:14;;;;;;;11.43;5.90;;;2.70;99.90;;;;;;5117866;27;20422;-82
2023/01/28 05:07:39;;;;;;;9.55;5.57;;;1.80;99.90;;;;;;5083783;27;20476;-83
2023/01/28 05:10:05;;;;;;;9.10;5.47;;;2.30;99.90;;;;;;5134907;27;20051;-82
2023/01/28 05:12:32;;;;;;;8.77;5.10;;;1.80;99.90;;;;;;5101132;27;20492;-82
2023/01/28 05:15:03;;;;;;;11.68;5.22;;;1.80;99.90;;;;;;5117571;27;20469;-82
2023/01/28 05:17:28;;;;;;;13.00;6.38;;;1.90;1.00;;;;;;5117670;27;20051;-83
2023/01/28 05:19:54;;;;;;;9.77;5.72;;;2.50;1.00;;;;;;5117229;27;20529;-84
2023/01/28 05:22:20;;;;;;;10.13;6.00;;;1.80;99.90;;;;;;5116530;27;20047;-83
2023/01/28 05:24:45;;;;;;;11.13;5.97;;;1.80;1.00;;;;;;5117115;27;20047;-82
2023/01/28 05:27:11;;;;;;;10.00;6.00;;;2.90;1.00;;;;;;5116917;27;20043;-82
2023/01/28 05:29:37;;;;;;;14.27;5.53;;;1.90;1.00;;;;;;5116226;27;20103;-83
2023/01/28 05:32:03;;;;;;;13.40;6.57;;;2.70;58.40;;;;;;5116001;28;20058;-83
2023/01/28 05:34:28;;;;;;;11.70;6.25;;;1.70;93.80;;;;;;5099562;27;20047;-83
2023/01/28 05:36:54;;;;;;;10.80;6.10;;;2.50;99.90;;;;;;5099742;27;20065;-83
2023/01/28 05:39:20;;;;;;;11.13;6.13;;;2.40;93.40;;;;;;5116740;27;20054;-83
2023/01/28 05:41:45;;;;;;;11.45;6.47;;;2.60;76.20;;;;;;5099488;27;20605;-83
2023/01/28 05:44:11;;;;;;;12.35;6.40;;;1.80;91.00;;;;;;5133812;27;20050;-84
2023/01/28 05:46:37;;;;;;;10.35;5.65;;;2.60;67.00;;;;;;5116518;27;20039;-84
2023/01/28 05:49:02;;;;;;;10.30;5.57;;;1.90;75.50;;;;;;5133736;27;20125;-83
2023/01/28 05:51:28;;;;;;;10.73;6.57;;;2.70;61.00;;;;;;5099147;27;20051;-83
2023/01/28 05:53:54;;;;;;;10.60;6.35;;;2.10;25.00;;;;;;5099655;27;20058;-84
2023/01/28 05:56:19;;;;;;;10.27;6.03;;;2.60;25.50;;;;;;5115956;27;20520;-83
2023/01/28 05:58:45;;;;;;;11.63;6.53;;;1.80;2.00;;;;;;5099263;27;20043;-84
2023/01/28 06:01:11;;;;;;;13.52;6.68;;;1.90;1.00;;;;;;5099560;27;20417;-83
2023/01/28 06:03:37;;;;;;;11.25;6.38;;;2.20;1.00;;;;;;5116097;27;20039;-84
2023/01/28 06:06:02;;;;;;;10.48;6.43;;;2.60;1.00;;;;;;5133547;27;20501;-83
2023/01/28 06:08:28;;;;;;;10.52;6.30;;;1.80;99.90;;;;;;5082469;27;20035;-83
2023/01/28 06:10:54;;;;;;;10.15;6.38;;;1.80;1.00;;;;;;5116232;27;20043;-82
2023/01/28 06:13:19;;;;;;;11.05;6.10;;;1.80;1.00;;;;;;5099192;27;20526;-82
2023/01/28 06:15:48;;;;;;;9.55;6.53;;;1.80;1.00;;;;;;5099268;27;20103;-82
2023/01/28 06:18:14;;;;;;;10.30;6.80;;;2.60;1.00;;;;;;5115785;27;20387;-83
2023/01/28 06:20:40;;;;;;;9.90;6.32;;;2.70;1.00;;;;;;5115945;27;20047;-83
2023/01/28 06:23:05;;;;;;;10.68;7.25;;;1.80;1.00;;;;;;5115600;28;20047;-84
2023/01/28 06:25:31;;;;;;;12.82;6.97;;;2.60;1.00;;;;;;5098827;28;20047;-83
2023/01/28 06:27:57;;;;;;;13.85;7.28;;;1.80;1.00;;;;;;5135025;27;20387;-83
2023/01/28 06:30:23;;;;;;;12.30;7.50;;;2.40;1.00;;;;;;5119293;27;20079;-84
2023/01/28 06:32:54;;;;;;;10.93;7.35;;;2.90;1.00;;;;;;5119006;27;20042;-83
2023/01/28 06:35:20;;;;;;;12.20;7.72;;;2.60;1.00;;;;;;5102680;27;20046;-84
2023/01/28 06:37:46;;;;;;;15.13;8.20;;;1.80;1.00;;;;;;5085410;27;20035;-84
2023/01/28 06:40:12;;;;;;;14.98;8.57;;;2.20;20.50;;;;;;5102468;27;20372;-83
2023/01/28 06:42:37;;;;;;;14.38;8.38;;;1.80;27.10;;;;;;5136199;27;20042;-82
2023/01/28 06:45:03;;;;;;;12.75;8.65;;;2.30;79.60;;;;;;5139950;27;20360;-82
2023/01/28 06:47:29;;;;;;;13.00;8.70;;;1.80;99.90;;;;;;5123396;27;20138;-83
2023/01/28 06:49:55;;;;;;;14.88;9.45;;;2.00;99.90;;;;;;5123448;27;20137;-83
2023/01/28 06:52:20;;;;;;;15.50;9.18;;;2.90;99.90;;;;;;5123443;27;20394;-83
2023/01/28 06:54:46;;;;;;;15.93;9.00;;;1.80;99.90;;;;;;5123137;27;20046;-83
2023/01/28 06:57:12;;;;;;;13.55;9.07;;;2.10;99.90;;;;;;5123363;27;20085;-82
2023/01/28 06:59:38;;;;;;;13.65;8.20;;;2.40;99.90;;;;;;5140048;27;20042;-83
2023/01/28 07:02:04;;;;;;;16.23;9.20;;;2.70;99.90;;;;;;5123336;27;20129;-82
2023/01/28 07:04:30;;;;;;;12.15;8.80;;;1.80;99.90;;;;;;5123104;27;20047;-83
2023/01/28 07:06:56;;;;;;;12.38;8.90;;;2.70;99.90;;;;;;5140152;27;20099;-83
2023/01/28 07:09:22;;;;;;;13.75;8.98;;;2.50;99.90;;;;;;5139927;27;20047;-83
2023/01/28 07:11:47;;;;;;;14.13;8.30;;;2.60;73.00;;;;;;5139620;27;20046;-82
2023/01/28 07:14:13;;;;;;;12.52;8.93;;;2.10;8.00;;;;;;5105391;27;20054;-83
2023/01/28 07:16:39;;;;;;;14.55;8.52;;;1.70;23.10;;;;;;5122289;27;20543;-83
2023/01/28 07:19:04;;;;;;;14.30;8.52;;;2.20;90.00;;;;;;5105343;27;20043;-83
2023/01/28 07:21:30;;;;;;;12.07;8.23;;;1.60;96.50;;;;;;5139550;27;20046;-84
2023/01/28 07:23:56;;;;;;;16.17;10.00;;;1.40;99.90;;;;;;4763782;27;9999829;-83
2023/01/28 07:26:22;;;;;;;26.42;13.20;;;2.00;99.90;;;;;;5120300;27;20451;-83
2023/01/28 07:28:48;;;;;;;13.15;8.43;;;1.20;99.90;;;;;;5119734;27;20097;-83
2023/01/28 07:31:14;;;;;;;12.98;8.55;;;2.20;99.90;;;;;;5120476;27;20041;-82
2023/01/28 07:33:39;;;;;;;12.90;8.48;;;1.50;99.90;;;;;;5086499;27;20103;-83
2023/01/28 07:36:05;;;;;;;13.65;8.25;;;1.00;99.90;;;;;;5121159;27;20143;-83
2023/01/28 07:38:31;;;;;;;13.95;8.55;;;0.90;99.90;;;;;;5137418;27;20105;-83
2023/01/28 07:40:57;;;;;;;12.70;7.93;;;1.00;99.90;;;;;;5103830;27;20487;-82
2023/01/28 07:43:23;;;;;;;14.13;9.20;;;1.70;99.90;;;;;;5120705;27;20119;-83
2023/01/28 07:45:49;;;;;;;13.60;8.75;;;1.40;99.90;;;;;;5102673;27;20482;-83
2023/01/28 07:48:14;;;;;;;15.48;9.15;;;0.70;99.90;;;;;;5137269;27;20046;-84
2023/01/28 07:50:40;;;;;;;16.85;9.07;;;0.70;99.90;;;;;;5119737;27;20050;-83
2023/01/28 07:53:10;;;;;;;12.90;8.02;;;1.50;99.90;;;;;;5102949;27;20042;-82
2023/01/28 07:55:36;;;;;;;15.18;8.90;;;0.70;99.90;;;;;;5119047;27;20050;-82
2023/01/28 07:58:04;;;;;;;17.67;8.88;;;1.50;99.90;;;;;;5118692;27;20039;-82
2023/01/28 08:00:32;;;;;;;17.52;8.65;;;0.60;99.90;;;;;;5136547;27;20494;-83
2023/01/28 08:03:06;;;;;;;14.75;8.75;;;0.60;99.90;;;;;;5119102;27;20071;-83
2023/01/28 08:05:48;;;;;;;15.90;8.68;;;0.60;99.90;;;;;;5134914;27;20046;-84
2023/01/28 08:08:14;;;;;;;15.52;8.50;;;0.60;99.90;;;;;;5136684;27;20043;-84
2023/01/28 08:10:40;;;;;;;18.73;9.77;;;0.60;99.90;;;;;;5102193;27;20057;-82
2023/01/28 08:13:08;;;;;;;15.95;9.45;;;1.00;99.90;;;;;;5136556;27;20038;-83
2023/01/28 08:15:34;;;;;;;14.02;8.35;;;1.70;1.00;;;;;;5119441;27;20119;-82
2023/01/28 08:18:00;;;;;;;14.05;8.38;;;2.00;99.90;;;;;;5119352;27;20121;-83
2023/01/28 08:20:27;;;;;;;14.90;9.18;;;2.10;99.90;;;;;;5121690;27;20047;-82
2023/01/28 08:23:03;;;;;;;14.45;8.23;;;1.00;99.90;;;;;;5121628;27;20486;-82
2023/01/28 08:25:28;;;;;;;15.43;8.35;;;1.10;99.90;;;;;;5138721;27;20444;-83
2023/01/28 08:27:54;;;;;;;14.65;8.88;;;1.10;99.90;;;;;;5121109;27;20047;-83
2023/01/28 08:30:20;;;;;;;14.20;8.23;;;1.70;99.90;;;;;;5121352;27;20184;-83
2023/01/28 08:32:46;;;;;;;14.02;8.88;;;1.80;99.90;;;;;;5104328;27;20080;-83
2023/01/28 08:35:11;;;;;;;13.30;8.60;;;1.90;99.90;;;;;;5121634;27;20130;-83
2023/01/28 08:37:37;;;;;;;15.52;8.63;;;1.20;99.90;;;;;;5104157;27;20046;-83
2023/01/28 08:40:03;;;;;;;12.77;7.53;;;2.00;99.90;;;;;;5121227;27;20039;-82
2023/01/28 08:42:29;;;;;;;14.77;7.93;;;1.20;99.90;;;;;;5121404;27;20119;-83
2023/01/28 08:44:54;;;;;;;15.65;8.38;;;1.20;99.90;;;;;;5120806;27;20050;-82
2023/01/28 08:47:20;;;;;;;15.57;8.23;;;2.10;99.90;;;;;;5104282;27;20046;-82
2023/01/28 08:49:46;;;;;;;17.50;8.85;;;1.60;99.90;;;;;;5138070;27;20098;-83
2023/01/28 08:52:11;;;;;;;14.45;8.50;;;2.20;99.90;;;;;;5121159;27;20133;-82
2023/01/28 08:54:37;;;;;;;15.00;8.57;;;2.10;99.90;;;;;;5121027;27;20042;-82
2023/01/28 08:57:03;;;;;;;16.15;8.73;;;1.50;99.90;;;;;;5120424;27;20046;-82
2023/01/28 08:59:29;;;;;;;15.07;8.93;;;1.60;99.90;;;;;;5120983;27;20060;-82
2023/01/28 09:01:54;;;;;;;14.45;8.48;;;2.70;99.90;;;;;;5137827;27;20550;-82
2023/01/28 09:04:20;;;;;;;13.43;8.07;;;1.60;99.90;;;;;;5137893;27;20505;-83
2023/01/28 09:06:46;;;;;;;15.20;8.77;;;2.60;99.90;;;;;;5137156;27;20035;-83
2023/01/28 09:09:11;;;;;;;15.32;8.80;;;1.70;99.90;;;;;;5103575;27;20141;-82
2023/01/28 09:11:37;;;;;;;16.33;9.00;;;1.90;99.90;;;;;;5137885;27;20046;-82
2023/01/28 09:14:03;;;;;;;12.63;7.78;;;2.90;99.90;;;;;;5120457;27;20487;-82
2023/01/28 09:16:29;;;;;;;15.38;8.60;;;2.20;99.90;;;;;;5137795;27;20039;-82
2023/01/28 09:18:54;;;;;;;14.52;8.40;;;2.30;99.90;;;;;;5120240;27;20478;-82
2023/01/28 09:21:20;;;;;;;16.95;8.82;;;2.40;99.90;;;;;;5137568;27;20137;-82
2023/01/28 09:23:46;;;;;;;15.20;8.48;;;2.50;99.90;;;;;;5120509;27;20046;-82
2023/01/28 09:26:12;;;;;;;14.20;8.00;;;3.10;99.90;;;;;;5137601;27;20095;-81
2023/01/28 09:28:39;;;;;;;13.77;7.60;;;3.20;99.90;;;;;;5103039;27;20054;-82
2023/01/28 09:31:07;;;;;;;15.15;7.97;;;3.10;1.00;;;;;;5119288;27;20070;-82
2023/01/28 09:33:34;;;;;;;15.63;7.38;;;2.80;1.00;;;;;;5134958;27;20057;-86
2023/01/28 09:36:02;;;;;;;14.80;7.85;;;2.90;99.90;;;;;;5117123;27;20047;-82
2023/01/28 09:38:29;;;;;;;11.63;7.68;;;3.70;99.90;;;;;;5117309;27;20074;-83
2023/01/28 09:40:55;;;;;;;13.38;7.60;;;3.70;99.90;;;;;;5134897;27;20072;-81
2023/01/28 09:44:00;;;;;;;15.57;8.25;;;3.60;99.90;;;;;;5083733;27;20475;-82
2023/01/28 09:46:35;;;;;;;12.40;7.95;;;3.30;58.20;;;;;;5102021;27;20099;-82
2023/01/28 09:49:13;;;;;;;13.88;7.95;;;3.50;1.00;;;;;;5117064;27;20034;-82
2023/01/28 09:51:47;;;;;;;14.27;8.60;;;3.60;99.90;;;;;;5134591;27;20479;-83
2023/01/28 09:54:37;;;;;;;14.70;7.90;;;3.80;99.90;;;;;;5097376;27;20049;-82
2023/01/28 09:57:19;;;;;;;13.00;7.60;;;3.90;99.90;;;;;;5131513;27;20035;-82
2023/01/28 09:59:45;;;;;;;11.10;6.60;;;3.90;99.90;;;;;;5112265;27;20042;-82
2023/01/28 10:02:27;;;;;;;10.93;6.40;;;4.20;25.30;;;;;;5100381;27;20042;-82
2023/01/28 10:04:53;;;;;;;9.00;5.53;;;4.20;99.90;;;;;;5134307;27;20050;-84
2023/01/28 10:07:50;;;;;;;9.98;6.07;;;4.30;1.00;;;;;;5134747;27;20042;-83
2023/01/28 10:10:42;;;;;;;7.82;5.20;;;4.50;99.90;;;;;;5113769;27;20499;-83
2023/01/28 10:13:29;;;;;;;11.57;6.32;;;4.80;99.90;;;;;;5117419;27;20046;-80
2023/01/28 10:16:16;;;;;;;10.88;5.60;;;4.50;1.00;;;;;;5134499;27;20114;-82
2023/01/28 10:18:53;;;;;;;9.20;5.00;;;4.60;99.90;;;;;;5117042;27;20039;-83
2023/01/28 10:21:22;;;;;;;8.35;5.05;;;4.70;99.90;;;;;;5117428;27;20046;-82
2023/01/28 10:24:00;;;;;;;9.25;5.85;;;4.50;1.00;;;;;;5133845;27;20043;-82
2023/01/28 10:26:34;;;;;;;10.40;5.50;;;4.40;1.00;;;;;;5134391;27;20121;-82
2023/01/28 10:29:08;;;;;;;8.05;5.13;;;4.30;99.90;;;;;;5116967;27;20054;-82
2023/01/28 10:31:41;;;;;;;8.73;5.18;;;4.30;1.00;;;;;;5117299;27;20046;-82
2023/01/28 10:34:09;;;;;;;8.77;5.13;;;4.10;1.00;;;;;;4762973;27;10000450;-84
2023/01/28 10:36:35;;;;;;;9.15;4.90;;;4.00;1.00;;;;;;5134264;27;20051;-81
2023/01/28 10:39:01;;;;;;;9.10;6.10;;;3.80;99.90;;;;;;5116306;27;20497;-82
2023/01/28 10:41:27;;;;;;;8.88;5.40;;;4.90;99.90;;;;;;5134176;27;20058;-83
2023/01/28 10:43:53;;;;;;;9.23;5.30;;;4.00;1.00;;;;;;5134177;27;20149;-81
2023/01/28 10:46:35;;;;;;;9.88;5.38;;;4.50;99.90;;;;;;5116071;27;20046;-82
2023/01/28 10:49:22;;;;;;;8.57;5.32;;;4.60;1.00;;;;;;5116359;27;20035;-79
2023/01/28 10:51:48;;;;;;;9.05;5.40;;;4.90;99.90;;;;;;5130434;27;20386;-79
2023/01/28 10:54:21;;;;;;;10.82;6.38;;;5.00;99.90;;;;;;5133557;27;20046;-82
2023/01/28 10:56:50;;;;;;;8.77;5.53;;;4.80;99.90;;;;;;5133665;27;20478;-82
2023/01/28 10:59:25;;;;;;;8.27;5.00;;;4.70;93.70;;;;;;5133023;27;20053;-83
2023/01/28 11:02:03;;;;;;;9.25;5.60;;;4.80;99.90;;;;;;5133922;27;20259;-81
2023/01/28 11:04:38;;;;;;;7.63;4.60;;;5.00;1.00;;;;;;5117016;27;20095;-81
2023/01/28 11:07:15;;;;;;;6.35;4.68;;;5.10;99.90;;;;;;5133596;27;20046;-81
2023/01/28 11:09:45;;;;;;;7.10;5.05;;;5.00;99.90;;;;;;5116427;27;20057;-81
2023/01/28 11:12:22;;;;;;;7.03;4.90;;;5.50;99.90;;;;;;5133869;27;20406;-81
2023/01/28 11:14:56;;;;;;;124.53;57.80;;;5.00;99.90;;;;;;5133724;27;20360;-81
2023/01/28 11:17:25;;;;;;;136.75;57.90;;;5.10;99.90;;;;;;5116334;27;20047;-84
2023/01/28 11:19:53;;;;;;;8.20;5.47;;;5.10;99.90;;;;;;5133829;27;20054;-83
2023/01/28 11:22:29;;;;;;;11.40;6.13;;;5.40;99.90;;;;;;5132971;27;20471;-81
2023/01/28 11:24:55;;;;;;;11.70;6.53;;;5.20;99.90;;;;;;5116531;27;20123;-82
2023/01/28 11:27:28;;;;;;;14.70;7.32;;;5.10;99.90;;;;;;5133244;27;20559;-82
2023/01/28 11:29:58;;;;;;;11.10;5.75;;;5.20;99.90;;;;;;5133201;27;20191;-83
2023/01/28 11:32:25;;;;;;;11.68;5.25;;;5.20;99.90;;;;;;5122125;27;20130;-84
2023/01/28 11:34:56;;;;;;;7.93;5.05;;;5.20;45.40;;;;;;5122617;27;20050;-82
2023/01/28 11:37:23;;;;;;;19.30;9.30;;;5.40;67.40;;;;;;5122356;27;20153;-82
2023/01/28 11:40:15;;;;;;;8.88;5.50;;;5.30;99.90;;;;;;5122367;27;20497;-82
2023/01/28 11:42:41;;;;;;;11.40;5.63;;;5.30;1.00;;;;;;5122545;27;20078;-82
2023/01/28 11:45:16;;;;;;;10.90;6.15;;;5.30;1.00;;;;;;5139427;27;20042;-82
2023/01/28 11:47:55;;;;;;;14.65;7.72;;;5.30;1.00;;;;;;5122269;27;20390;-83
2023/01/28 11:50:38;;;;;;;8.50;5.38;;;5.40;1.00;;;;;;5139077;27;20078;-82
2023/01/28 11:53:17;;;;;;;10.27;5.32;;;5.40;1.00;;;;;;5122349;27;20368;-81
2023/01/28 11:56:10;;;;;;;6.95;4.70;;;5.30;99.90;;;;;;5139425;27;20428;-82
2023/01/28 11:58:49;;;;;;;12.98;6.38;;;5.40;1.00;;;;;;5139249;27;20114;-82
2023/01/28 12:01:44;;;;;;;8.65;4.80;;;5.40;1.00;;;;;;5139069;27;20490;-83
2023/01/28 12:05:01;;;;;;;8.18;4.90;;;5.50;1.00;;;;;;5074847;27;20145;-82
2023/01/28 12:07:52;;;;;;;7.72;4.35;;;5.60;99.90;;;;;;5066283;27;20149;-81
2023/01/28 12:10:29;;;;;;;7.05;5.28;;;5.50;99.90;;;;;;5100187;27;20537;-82
2023/01/28 12:13:12;;;;;;;8.93;5.25;;;5.60;1.00;;;;;;5121649;27;20435;-81
2023/01/28 12:15:56;;;;;;;8.85;5.50;;;5.60;1.00;;;;;;5121739;27;20050;-80
2023/01/28 12:18:31;;;;;;;8.07;4.82;;;5.60;99.90;;;;;;5121316;27;20053;-82
2023/01/28 12:21:40;;;;;;;8.13;5.55;;;5.70;1.00;;;;;;5121867;27;20095;-81
2023/01/28 12:24:33;;;;;;;7.90;5.30;;;5.50;99.90;;;;;;5107934;27;20143;-83
2023/01/28 12:27:17;;;;;;;10.18;6.15;;;5.30;99.90;;;;;;5121698;27;20495;-83
2023/01/28 12:29:54;;;;;;;12.32;5.55;;;5.50;99.90;;;;;;5138330;27;20078;-82
2023/01/28 12:32:44;;;;;;;6.57;4.30;;;6.10;1.00;;;;;;5121440;27;20046;-79
2023/01/28 12:35:34;;;;;;;7.70;5.07;;;6.90;1.00;;;;;;5138538;27;20504;-83
2023/01/28 12:38:00;;;;;;;8.18;5.13;;;7.40;99.90;;;;;;5138543;27;20081;-82
2023/01/28 12:40:53;;;;;;;8.85;5.35;;;7.80;1.00;;;;;;5138287;27;20046;-81
2023/01/28 12:44:00;;;;;;;8.18;5.45;;;8.40;73.80;;;;;;5138287;27;20499;-81
2023/01/28 12:46:51;;;;;;;8.02;4.88;;;8.70;1.00;;;;;;5138179;27;20050;-81
2023/01/28 12:49:34;;;;;;;7.93;5.43;;;8.90;99.90;;;;;;5138456;27;20078;-83
2023/01/28 12:52:17;;;;;;;7.82;5.43;;;9.00;1.00;;;;;;5121100;27;20046;-81
2023/01/28 12:55:10;;;;;;;10.38;5.75;;;9.20;99.90;;;;;;5138030;27;20046;-82
2023/01/28 12:57:36;;;;;;;6.43;4.75;;;9.30;99.90;;;;;;5120440;27;20047;-81
2023/01/28 13:00:11;;;;;;;7.15;5.38;;;9.70;99.90;;;;;;5137913;27;20284;-80
2023/01/28 13:02:42;;;;;;;7.40;5.50;;;9.80;99.90;;;;;;5120888;27;20138;-80
2023/01/28 13:05:12;;;;;;;6.20;4.85;;;9.30;1.00;;;;;;5121051;27;20047;-81
2023/01/28 13:07:44;;;;;;;8.35;4.63;;;9.20;99.90;;;;;;5137722;27;20386;-81
2023/01/28 13:10:37;;;;;;;7.00;5.70;;;9.00;99.90;;;;;;5137992;27;20133;-81
2023/01/28 13:13:04;;;;;;;8.93;5.82;;;8.70;12.90;;;;;;5137862;27;20065;-81
2023/01/28 13:15:31;;;;;;;7.82;5.60;;;8.30;99.90;;;;;;5103577;27;20042;-81
2023/01/28 13:17:59;;;;;;;6.40;5.35;;;8.50;99.90;;;;;;5120538;27;20039;-82
2023/01/28 13:20:45;;;;;;;7.28;5.38;;;9.10;99.90;;;;;;5137541;27;20054;-81
2023/01/28 13:23:34;;;;;;;7.57;4.90;;;9.70;86.10;;;;;;5137871;27;20129;-81
2023/01/28 13:26:17;;;;;;;7.60;5.45;;;9.60;99.90;;;;;;5120562;27;20471;-82
2023/01/28 13:28:43;;;;;;;9.20;5.53;;;9.70;1.00;;;;;;5136896;27;20054;-81
2023/01/28 13:31:18;;;;;;;8.98;5.18;;;9.10;1.00;;;;;;5120550;27;20051;-82
2023/01/28 13:33:53;;;;;;;8.55;5.63;;;8.40;1.00;;;;;;5137277;27;20086;-81
2023/01/28 13:36:29;;;;;;;8.32;5.72;;;7.80;1.00;;;;;;5137398;27;20050;-82
2023/01/28 13:39:06;;;;;;;9.70;5.65;;;7.50;83.40;;;;;;5136894;27;20075;-83
2023/01/28 13:41:42;;;;;;;9.70;5.75;;;7.10;99.90;;;;;;5119945;27;20059;-83
2023/01/28 13:44:37;;;;;;;10.45;5.78;;;6.90;99.90;;;;;;5120011;27;20074;-83
2023/01/28 13:47:06;;;;;;;10.65;6.05;;;6.80;99.90;;;;;;5133224;27;20091;-81